sensor_id;sensor_type;location;lat;lon;timestamp;temperature;humidity
34985;DHT22;21190;58.750;17.004;2023-07-09T00:01:19;17.10;99.90
34985;DHT22;21190;58.750;17.004;2023-07-09T00:03:47;17.10;99.90
34985;DHT22;21190;58.750;17.004;2023-07-09T00:06:19;17.10;99.90
34985;DHT22;21190;58.750;17.004;2023-07-09T00:08:48;17.10;99.90
34985;DHT22;21190;58.750;17.004;2023-07-09T00:11:16;17.00;99.90
34985;DHT22;21190;58.750;17.004;2023-07-09T00:13:43;17.00;99.90
34985;DHT22;21190;58.750;17.004;2023-07-09T00:16:16;16.90;99.90
34985;DHT22;21190;58.750;17.004;2023-07-09T00:18:46;16.90;99.90
34985;DHT22;21190;58.750;17.004;2023-07-09T00:21:17;16.90;99.90
34985;DHT22;21190;58.750;17.004;2023-07-09T00:23:44;16.90;99.90
34985;DHT22;21190;58.750;17.004;2023-07-09T00:26:12;16.90;99.90
34985;DHT22;21190;58.750;17.004;2023-07-09T00:28:41;16.90;99.90
34985;DHT22;21190;58.750;17.004;2023-07-09T00:31:16;16.90;99.90
34985;DHT22;21190;58.750;17.004;2023-07-09T00:33:43;16.90;99.90
34985;DHT22;21190;58.750;17.004;2023-07-09T00:36:28;16.90;99.90
34985;DHT22;21190;58.750;17.004;2023-07-09T00:38:55;16.90;99.90
34985;DHT22;21190;58.750;17.004;2023-07-09T00:41:34;16.90;99.90
34985;DHT22;21190;58.750;17.004;2023-07-09T00:49:31;16.80;99.90
34985;DHT22;21190;58.750;17.004;2023-07-09T00:52:15;16.80;99.90
34985;DHT22;21190;58.750;17.004;2023-07-09T00:54:46;16.80;99.90
34985;DHT22;21190;58.750;17.004;2023-07-09T00:57:16;16.80;99.90
34985;DHT22;21190;58.750;17.004;2023-07-09T00:59:50;16.80;99.90
34985;DHT22;21190;58.750;17.004;2023-07-09T01:02:18;16.80;99.90
34985;DHT22;21190;58.750;17.004;2023-07-09T01:04:56;16.70;99.90
34985;DHT22;21190;58.750;17.004;2023-07-09T01:07:30;16.80;99.90
34985;DHT22;21190;58.750;17.004;2023-07-09T01:09:57;16.80;99.90
34985;DHT22;21190;58.750;17.004;2023-07-09T01:12:25;16.70;99.90
34985;DHT22;21190;58.750;17.004;2023-07-09T01:14:54;16.70;99.90
34985;DHT22;21190;58.750;17.004;2023-07-09T01:17:28;16.80;99.90
34985;DHT22;21190;58.750;17.004;2023-07-09T01:19:56;16.80;99.90
34985;DHT22;21190;58.750;17.004;2023-07-09T01:22:24;16.70;99.90
34985;DHT22;21190;58.750;17.004;2023-07-09T01:25:02;16.80;99.90
34985;DHT22;21190;58.750;17.004;2023-07-09T01:27:35;16.80;99.90
34985;DHT22;21190;58.750;17.004;2023-07-09T01:30:16;16.70;99.90
34985;DHT22;21190;58.750;17.004;2023-07-09T01:32:43;16.80;99.90
34985;DHT22;21190;58.750;17.004;2023-07-09T01:35:14;16.80;99.90
34985;DHT22;21190;58.750;17.004;2023-07-09T01:37:42;16.80;99.90
34985;DHT22;21190;58.750;17.004;2023-07-09T01:40:12;16.80;99.90
34985;DHT22;21190;58.750;17.004;2023-07-09T01:42:57;16.80;99.90
34985;DHT22;21190;58.750;17.004;2023-07-09T01:45:28;16.70;99.90
34985;DHT22;21190;58.750;17.004;2023-07-09T01:47:55;16.70;99.90
34985;DHT22;21190;58.750;17.004;2023-07-09T01:50:23;16.70;99.90
34985;DHT22;21190;58.750;17.004;2023-07-09T01:52:52;16.70;99.90
34985;DHT22;21190;58.750;17.004;2023-07-09T01:55:20;16.70;99.90
34985;DHT22;21190;58.750;17.004;2023-07-09T01:57:47;16.70;99.90
34985;DHT22;21190;58.750;17.004;2023-07-09T02:00:16;16.70;99.90
34985;DHT22;21190;58.750;17.004;2023-07-09T02:02:45;16.60;99.90
34985;DHT22;21190;58.750;17.004;2023-07-09T02:05:16;16.60;99.90
34985;DHT22;21190;58.750;17.004;2023-07-09T02:07:43;16.50;99.90
34985;DHT22;21190;58.750;17.004;2023-07-09T02:10:11;16.50;99.90
34985;DHT22;21190;58.750;17.004;2023-07-09T02:12:38;16.50;99.90
34985;DHT22;21190;58.750;17.004;2023-07-09T02:15:05;16.40;99.90
34985;DHT22;21190;58.750;17.004;2023-07-09T02:17:33;16.40;99.90
34985;DHT22;21190;58.750;17.004;2023-07-09T02:20:00;16.40;99.90
34985;DHT22;21190;58.750;17.004;2023-07-09T02:22:27;16.40;99.90
34985;DHT22;21190;58.750;17.004;2023-07-09T02:24:54;16.40;99.90
34985;DHT22;21190;58.750;17.004;2023-07-09T02:27:21;16.40;99.90
34985;DHT22;21190;58.750;17.004;2023-07-09T02:29:48;16.40;99.90
34985;DHT22;21190;58.750;17.004;2023-07-09T02:32:21;16.40;99.90
34985;DHT22;21190;58.750;17.004;2023-07-09T02:34:49;16.30;99.90
34985;DHT22;21190;58.750;17.004;2023-07-09T02:37:21;16.30;99.90
34985;DHT22;21190;58.750;17.004;2023-07-09T02:39:49;16.30;99.90
34985;DHT22;21190;58.750;17.004;2023-07-09T02:42:19;16.30;99.90
34985;DHT22;21190;58.750;17.004;2023-07-09T02:44:47;16.30;99.90
34985;DHT22;21190;58.750;17.004;2023-07-09T02:47:14;16.30;99.90
34985;DHT22;21190;58.750;17.004;2023-07-09T02:49:42;16.30;99.90
34985;DHT22;21190;58.750;17.004;2023-07-09T02:52:09;16.30;99.90
34985;DHT22;21190;58.750;17.004;2023-07-09T02:54:36;16.30;99.90
34985;DHT22;21190;58.750;17.004;2023-07-09T02:57:03;16.30;99.90
34985;DHT22;21190;58.750;17.004;2023-07-09T02:59:31;16.30;99.90
34985;DHT22;21190;58.750;17.004;2023-07-09T03:02:00;16.30;99.90
34985;DHT22;21190;58.750;17.004;2023-07-09T03:04:27;16.30;99.90
34985;DHT22;21190;58.750;17.004;2023-07-09T03:06:54;16.30;99.90
34985;DHT22;21190;58.750;17.004;2023-07-09T03:09:21;16.30;99.90
34985;DHT22;21190;58.750;17.004;2023-07-09T03:11:48;16.40;99.90
34985;DHT22;21190;58.750;17.004;2023-07-09T03:14:16;16.40;99.90
34985;DHT22;21190;58.750;17.004;2023-07-09T03:16:43;16.40;99.90
34985;DHT22;21190;58.750;17.004;2023-07-09T03:19:10;16.40;99.90
34985;DHT22;21190;58.750;17.004;2023-07-09T03:21:38;16.30;99.90
34985;DHT22;21190;58.750;17.004;2023-07-09T03:24:05;16.30;99.90
34985;DHT22;21190;58.750;17.004;2023-07-09T03:26:33;16.30;99.90
34985;DHT22;21190;58.750;17.004;2023-07-09T03:28:59;16.30;99.90
34985;DHT22;21190;58.750;17.004;2023-07-09T03:31:27;16.30;99.90
34985;DHT22;21190;58.750;17.004;2023-07-09T03:33:54;16.40;99.90
34985;DHT22;21190;58.750;17.004;2023-07-09T03:36:21;16.40;99.90
34985;DHT22;21190;58.750;17.004;2023-07-09T03:38:48;16.40;99.90
34985;DHT22;21190;58.750;17.004;2023-07-09T03:41:15;16.40;99.90
34985;DHT22;21190;58.750;17.004;2023-07-09T03:43:42;16.50;99.90
34985;DHT22;21190;58.750;17.004;2023-07-09T03:46:09;16.50;99.90
34985;DHT22;21190;58.750;17.004;2023-07-09T03:48:37;16.50;99.90
34985;DHT22;21190;58.750;17.004;2023-07-09T03:51:04;16.50;99.90
34985;DHT22;21190;58.750;17.004;2023-07-09T03:53:31;16.50;99.90
34985;DHT22;21190;58.750;17.004;2023-07-09T03:55:58;16.50;99.90
34985;DHT22;21190;58.750;17.004;2023-07-09T03:58:27;16.50;99.90
34985;DHT22;21190;58.750;17.004;2023-07-09T04:00:55;16.40;99.90
34985;DHT22;21190;58.750;17.004;2023-07-09T04:03:22;16.50;99.90
34985;DHT22;21190;58.750;17.004;2023-07-09T04:05:51;16.50;99.90
34985;DHT22;21190;58.750;17.004;2023-07-09T04:08:18;16.50;99.90
34985;DHT22;21190;58.750;17.004;2023-07-09T04:10:45;16.50;99.90
34985;DHT22;21190;58.750;17.004;2023-07-09T04:13:12;16.50;99.90
34985;DHT22;21190;58.750;17.004;2023-07-09T04:15:39;16.50;99.90
34985;DHT22;21190;58.750;17.004;2023-07-09T04:18:06;16.60;99.90
34985;DHT22;21190;58.750;17.004;2023-07-09T04:20:33;16.50;99.90
34985;DHT22;21190;58.750;17.004;2023-07-09T04:23:02;16.60;99.90
34985;DHT22;21190;58.750;17.004;2023-07-09T04:25:29;16.60;99.90
34985;DHT22;21190;58.750;17.004;2023-07-09T04:27:56;16.60;99.90
34985;DHT22;21190;58.750;17.004;2023-07-09T04:30:23;16.70;99.90
34985;DHT22;21190;58.750;17.004;2023-07-09T04:32:50;16.80;99.90
34985;DHT22;21190;58.750;17.004;2023-07-09T04:35:18;16.80;99.90
34985;DHT22;21190;58.750;17.004;2023-07-09T04:37:45;16.90;99.90
34985;DHT22;21190;58.750;17.004;2023-07-09T04:40:13;16.90;99.90
34985;DHT22;21190;58.750;17.004;2023-07-09T04:42:40;17.00;99.90
34985;DHT22;21190;58.750;17.004;2023-07-09T04:45:08;17.10;99.90
34985;DHT22;21190;58.750;17.004;2023-07-09T04:47:37;17.10;99.90
34985;DHT22;21190;58.750;17.004;2023-07-09T04:50:05;17.10;99.90
34985;DHT22;21190;58.750;17.004;2023-07-09T04:52:33;17.10;99.90
34985;DHT22;21190;58.750;17.004;2023-07-09T04:55:00;17.10;99.90
34985;DHT22;21190;58.750;17.004;2023-07-09T04:57:28;17.20;99.90
34985;DHT22;21190;58.750;17.004;2023-07-09T04:59:55;17.20;99.90
34985;DHT22;21190;58.750;17.004;2023-07-09T05:02:23;17.30;99.90
34985;DHT22;21190;58.750;17.004;2023-07-09T05:04:50;17.30;99.90
34985;DHT22;21190;58.750;17.004;2023-07-09T05:07:17;17.40;99.90
34985;DHT22;21190;58.750;17.004;2023-07-09T05:09:44;17.60;99.90
34985;DHT22;21190;58.750;17.004;2023-07-09T05:12:11;17.80;99.90
34985;DHT22;21190;58.750;17.004;2023-07-09T05:14:39;17.90;99.90
34985;DHT22;21190;58.750;17.004;2023-07-09T05:17:06;18.00;99.90
34985;DHT22;21190;58.750;17.004;2023-07-09T05:19:33;18.10;99.90
34985;DHT22;21190;58.750;17.004;2023-07-09T05:22:00;18.10;99.90
34985;DHT22;21190;58.750;17.004;2023-07-09T05:24:27;18.20;99.90
34985;DHT22;21190;58.750;17.004;2023-07-09T05:26:55;18.30;99.90
34985;DHT22;21190;58.750;17.004;2023-07-09T05:29:23;18.20;99.90
34985;DHT22;21190;58.750;17.004;2023-07-09T05:31:50;18.30;99.90
34985;DHT22;21190;58.750;17.004;2023-07-09T05:34:17;18.40;99.90
34985;DHT22;21190;58.750;17.004;2023-07-09T05:36:44;18.50;99.90
34985;DHT22;21190;58.750;17.004;2023-07-09T05:39:11;18.50;99.90
34985;DHT22;21190;58.750;17.004;2023-07-09T05:41:39;18.60;99.90
34985;DHT22;21190;58.750;17.004;2023-07-09T05:44:06;18.70;99.90
34985;DHT22;21190;58.750;17.004;2023-07-09T05:46:36;18.70;99.90
34985;DHT22;21190;58.750;17.004;2023-07-09T05:49:05;18.70;99.90
34985;DHT22;21190;58.750;17.004;2023-07-09T05:51:32;18.70;99.90
34985;DHT22;21190;58.750;17.004;2023-07-09T05:53:59;18.70;99.90
34985;DHT22;21190;58.750;17.004;2023-07-09T05:56:26;18.70;99.90
34985;DHT22;21190;58.750;17.004;2023-07-09T05:58:53;18.70;99.90
34985;DHT22;21190;58.750;17.004;2023-07-09T06:01:20;18.80;99.90
34985;DHT22;21190;58.750;17.004;2023-07-09T06:03:48;18.80;99.90
34985;DHT22;21190;58.750;17.004;2023-07-09T06:06:16;18.90;99.90
34985;DHT22;21190;58.750;17.004;2023-07-09T06:08:43;19.00;99.90
34985;DHT22;21190;58.750;17.004;2023-07-09T06:11:10;19.10;99.90
34985;DHT22;21190;58.750;17.004;2023-07-09T06:13:37;19.30;99.90
34985;DHT22;21190;58.750;17.004;2023-07-09T06:16:04;19.50;99.90
34985;DHT22;21190;58.750;17.004;2023-07-09T06:18:32;19.50;99.90
34985;DHT22;21190;58.750;17.004;2023-07-09T06:21:01;19.40;99.90
34985;DHT22;21190;58.750;17.004;2023-07-09T06:23:29;19.40;99.90
34985;DHT22;21190;58.750;17.004;2023-07-09T06:25:57;19.50;99.90
34985;DHT22;21190;58.750;17.004;2023-07-09T06:28:27;19.50;99.90
34985;DHT22;21190;58.750;17.004;2023-07-09T06:30:56;19.60;99.90
34985;DHT22;21190;58.750;17.004;2023-07-09T06:33:25;19.60;99.90
34985;DHT22;21190;58.750;17.004;2023-07-09T06:35:56;19.60;99.90
34985;DHT22;21190;58.750;17.004;2023-07-09T06:38:25;19.60;99.90
34985;DHT22;21190;58.750;17.004;2023-07-09T06:40:52;19.70;99.90
34985;DHT22;21190;58.750;17.004;2023-07-09T06:43:19;19.80;99.90
34985;DHT22;21190;58.750;17.004;2023-07-09T06:45:56;19.90;99.90
34985;DHT22;21190;58.750;17.004;2023-07-09T06:48:25;19.90;99.90
34985;DHT22;21190;58.750;17.004;2023-07-09T06:50:54;20.00;99.90
34985;DHT22;21190;58.750;17.004;2023-07-09T06:53:22;20.00;99.90
34985;DHT22;21190;58.750;17.004;2023-07-09T06:55:49;20.00;99.90
34985;DHT22;21190;58.750;17.004;2023-07-09T06:58:17;20.10;99.90
34985;DHT22;21190;58.750;17.004;2023-07-09T07:00:45;20.10;99.90
34985;DHT22;21190;58.750;17.004;2023-07-09T07:03:12;20.20;99.90
34985;DHT22;21190;58.750;17.004;2023-07-09T07:05:43;20.20;99.90
34985;DHT22;21190;58.750;17.004;2023-07-09T07:08:14;20.20;99.90
34985;DHT22;21190;58.750;17.004;2023-07-09T07:10:42;20.30;99.90
34985;DHT22;21190;58.750;17.004;2023-07-09T07:13:10;20.30;99.90
34985;DHT22;21190;58.750;17.004;2023-07-09T07:15:38;20.30;99.90
34985;DHT22;21190;58.750;17.004;2023-07-09T07:18:06;20.30;99.90
34985;DHT22;21190;58.750;17.004;2023-07-09T07:20:34;20.30;99.90
34985;DHT22;21190;58.750;17.004;2023-07-09T07:23:01;20.30;99.90
34985;DHT22;21190;58.750;17.004;2023-07-09T07:25:28;20.30;99.90
34985;DHT22;21190;58.750;17.004;2023-07-09T07:27:55;20.30;99.90
34985;DHT22;21190;58.750;17.004;2023-07-09T07:30:22;20.30;99.90
34985;DHT22;21190;58.750;17.004;2023-07-09T07:32:51;20.30;99.90
34985;DHT22;21190;58.750;17.004;2023-07-09T07:35:19;20.30;99.90
34985;DHT22;21190;58.750;17.004;2023-07-09T07:37:46;20.30;99.90
34985;DHT22;21190;58.750;17.004;2023-07-09T07:40:13;20.40;99.90
34985;DHT22;21190;58.750;17.004;2023-07-09T07:42:40;20.40;99.90
34985;DHT22;21190;58.750;17.004;2023-07-09T07:45:08;20.40;99.90
34985;DHT22;21190;58.750;17.004;2023-07-09T07:47:36;20.40;99.90
34985;DHT22;21190;58.750;17.004;2023-07-09T07:50:05;20.50;99.90
34985;DHT22;21190;58.750;17.004;2023-07-09T07:52:32;20.50;99.90
34985;DHT22;21190;58.750;17.004;2023-07-09T07:55:00;20.60;99.90
34985;DHT22;21190;58.750;17.004;2023-07-09T07:57:27;20.70;99.90
34985;DHT22;21190;58.750;17.004;2023-07-09T07:59:54;20.70;99.90
34985;DHT22;21190;58.750;17.004;2023-07-09T08:02:22;20.70;99.90
34985;DHT22;21190;58.750;17.004;2023-07-09T08:04:50;20.80;99.90
34985;DHT22;21190;58.750;17.004;2023-07-09T08:07:18;20.80;99.90
34985;DHT22;21190;58.750;17.004;2023-07-09T08:09:46;20.80;99.90
34985;DHT22;21190;58.750;17.004;2023-07-09T08:12:14;20.80;99.90
34985;DHT22;21190;58.750;17.004;2023-07-09T08:14:44;20.90;99.90
34985;DHT22;21190;58.750;17.004;2023-07-09T08:17:11;21.00;99.90
34985;DHT22;21190;58.750;17.004;2023-07-09T08:19:48;21.00;99.90
34985;DHT22;21190;58.750;17.004;2023-07-09T08:22:16;21.00;99.90
34985;DHT22;21190;58.750;17.004;2023-07-09T08:24:43;21.00;99.90
34985;DHT22;21190;58.750;17.004;2023-07-09T08:27:10;21.00;99.90
34985;DHT22;21190;58.750;17.004;2023-07-09T08:29:37;21.00;99.90
34985;DHT22;21190;58.750;17.004;2023-07-09T08:32:06;21.10;99.90
34985;DHT22;21190;58.750;17.004;2023-07-09T08:34:33;21.10;99.90
34985;DHT22;21190;58.750;17.004;2023-07-09T08:37:01;21.20;99.90
34985;DHT22;21190;58.750;17.004;2023-07-09T08:39:28;21.30;99.90
34985;DHT22;21190;58.750;17.004;2023-07-09T08:42:00;21.40;99.90
34985;DHT22;21190;58.750;17.004;2023-07-09T08:45:00;21.40;99.90
34985;DHT22;21190;58.750;17.004;2023-07-09T08:48:06;21.40;99.90
34985;DHT22;21190;58.750;17.004;2023-07-09T08:50:50;21.50;99.90
34985;DHT22;21190;58.750;17.004;2023-07-09T08:53:33;21.40;99.90
34985;DHT22;21190;58.750;17.004;2023-07-09T08:56:03;21.40;99.90
34985;DHT22;21190;58.750;17.004;2023-07-09T08:58:31;21.50;99.90
34985;DHT22;21190;58.750;17.004;2023-07-09T09:01:02;21.50;99.90
34985;DHT22;21190;58.750;17.004;2023-07-09T09:03:50;21.60;99.90
34985;DHT22;21190;58.750;17.004;2023-07-09T09:06:22;21.70;99.90
34985;DHT22;21190;58.750;17.004;2023-07-09T09:12:09;21.90;99.90
34985;DHT22;21190;58.750;17.004;2023-07-09T09:14:42;21.90;99.90
34985;DHT22;21190;58.750;17.004;2023-07-09T09:17:20;21.90;99.90
34985;DHT22;21190;58.750;17.004;2023-07-09T09:20:01;22.00;99.90
34985;DHT22;21190;58.750;17.004;2023-07-09T09:22:35;22.00;99.90
34985;DHT22;21190;58.750;17.004;2023-07-09T09:27:42;22.10;99.90
34985;DHT22;21190;58.750;17.004;2023-07-09T09:30:16;22.20;99.90
34985;DHT22;21190;58.750;17.004;2023-07-09T09:32:50;22.30;99.90
34985;DHT22;21190;58.750;17.004;2023-07-09T09:35:28;22.40;99.90
34985;DHT22;21190;58.750;17.004;2023-07-09T09:37:57;22.30;99.90
34985;DHT22;21190;58.750;17.004;2023-07-09T09:40:26;22.50;99.90
34985;DHT22;21190;58.750;17.004;2023-07-09T09:42:56;22.70;99.90
34985;DHT22;21190;58.750;17.004;2023-07-09T09:45:33;22.70;99.90
34985;DHT22;21190;58.750;17.004;2023-07-09T09:48:05;22.70;99.90
34985;DHT22;21190;58.750;17.004;2023-07-09T09:50:37;22.70;99.90
34985;DHT22;21190;58.750;17.004;2023-07-09T09:53:08;22.80;99.90
34985;DHT22;21190;58.750;17.004;2023-07-09T09:55:35;22.90;99.90
34985;DHT22;21190;58.750;17.004;2023-07-09T09:58:13;22.90;99.90
34985;DHT22;21190;58.750;17.004;2023-07-09T10:00:46;22.90;99.90
34985;DHT22;21190;58.750;17.004;2023-07-09T10:03:14;23.00;99.90
34985;DHT22;21190;58.750;17.004;2023-07-09T10:05:46;23.10;99.90
34985;DHT22;21190;58.750;17.004;2023-07-09T10:11:44;23.20;99.90
34985;DHT22;21190;58.750;17.004;2023-07-09T10:25:18;23.20;99.90
34985;DHT22;21190;58.750;17.004;2023-07-09T10:30:49;23.30;99.90
34985;DHT22;21190;58.750;17.004;2023-07-09T10:39:32;23.40;99.90
34985;DHT22;21190;58.750;17.004;2023-07-09T10:42:01;23.40;99.90
34985;DHT22;21190;58.750;17.004;2023-07-09T10:44:35;23.40;99.90
34985;DHT22;21190;58.750;17.004;2023-07-09T10:47:11;23.40;99.90
34985;DHT22;21190;58.750;17.004;2023-07-09T10:49:42;23.40;99.90
34985;DHT22;21190;58.750;17.004;2023-07-09T10:52:23;23.50;99.90
34985;DHT22;21190;58.750;17.004;2023-07-09T10:58:02;23.60;99.90
34985;DHT22;21190;58.750;17.004;2023-07-09T11:00:39;23.50;99.90
34985;DHT22;21190;58.750;17.004;2023-07-09T11:03:37;23.60;99.90
34985;DHT22;21190;58.750;17.004;2023-07-09T11:06:22;23.60;99.90
34985;DHT22;21190;58.750;17.004;2023-07-09T11:08:53;23.60;99.90
34985;DHT22;21190;58.750;17.004;2023-07-09T11:11:34;23.70;99.90
34985;DHT22;21190;58.750;17.004;2023-07-09T11:14:10;23.70;99.90
34985;DHT22;21190;58.750;17.004;2023-07-09T11:16:41;23.70;99.90
34985;DHT22;21190;58.750;17.004;2023-07-09T11:19:20;23.70;99.90
34985;DHT22;21190;58.750;17.004;2023-07-09T11:22:06;23.80;99.90
34985;DHT22;21190;58.750;17.004;2023-07-09T11:24:52;23.80;99.90
34985;DHT22;21190;58.750;17.004;2023-07-09T11:27:25;23.70;99.90
34985;DHT22;21190;58.750;17.004;2023-07-09T11:30:02;23.60;99.90
34985;DHT22;21190;58.750;17.004;2023-07-09T11:32:30;23.60;99.90
34985;DHT22;21190;58.750;17.004;2023-07-09T11:35:08;23.60;99.90
34985;DHT22;21190;58.750;17.004;2023-07-09T11:37:45;23.60;99.90
34985;DHT22;21190;58.750;17.004;2023-07-09T11:40:14;23.60;99.90
34985;DHT22;21190;58.750;17.004;2023-07-09T11:42:57;23.60;99.90
34985;DHT22;21190;58.750;17.004;2023-07-09T11:45:35;23.60;99.90
34985;DHT22;21190;58.750;17.004;2023-07-09T11:50:50;23.60;99.90
34985;DHT22;21190;58.750;17.004;2023-07-09T11:53:37;23.70;99.90
34985;DHT22;21190;58.750;17.004;2023-07-09T11:56:08;23.70;99.90
34985;DHT22;21190;58.750;17.004;2023-07-09T11:58:35;23.60;99.90
34985;DHT22;21190;58.750;17.004;2023-07-09T12:01:12;23.60;99.90
34985;DHT22;21190;58.750;17.004;2023-07-09T12:03:42;23.60;99.90
34985;DHT22;21190;58.750;17.004;2023-07-09T12:06:26;23.60;99.90
34985;DHT22;21190;58.750;17.004;2023-07-09T12:08:54;23.60;99.90
34985;DHT22;21190;58.750;17.004;2023-07-09T12:11:31;23.60;99.90
34985;DHT22;21190;58.750;17.004;2023-07-09T12:14:03;23.70;99.90
34985;DHT22;21190;58.750;17.004;2023-07-09T12:16:34;23.70;99.90
34985;DHT22;21190;58.750;17.004;2023-07-09T12:19:02;23.60;99.90
34985;DHT22;21190;58.750;17.004;2023-07-09T12:21:30;23.60;99.90
34985;DHT22;21190;58.750;17.004;2023-07-09T12:23:58;23.50;99.90
34985;DHT22;21190;58.750;17.004;2023-07-09T12:26:25;23.50;99.90
34985;DHT22;21190;58.750;17.004;2023-07-09T12:28:58;23.30;99.90
34985;DHT22;21190;58.750;17.004;2023-07-09T12:31:28;23.20;99.90
34985;DHT22;21190;58.750;17.004;2023-07-09T12:33:57;23.00;99.90
34985;DHT22;21190;58.750;17.004;2023-07-09T12:36:25;22.90;99.90
34985;DHT22;21190;58.750;17.004;2023-07-09T12:38:56;22.90;99.90
34985;DHT22;21190;58.750;17.004;2023-07-09T12:41:29;22.90;99.90
34985;DHT22;21190;58.750;17.004;2023-07-09T12:43:59;22.90;99.90
34985;DHT22;21190;58.750;17.004;2023-07-09T12:46:27;23.00;99.90
34985;DHT22;21190;58.750;17.004;2023-07-09T12:48:55;23.10;99.90
34985;DHT22;21190;58.750;17.004;2023-07-09T12:51:25;23.20;99.90
34985;DHT22;21190;58.750;17.004;2023-07-09T12:54:14;23.30;99.90
34985;DHT22;21190;58.750;17.004;2023-07-09T12:56:42;23.40;99.90
34985;DHT22;21190;58.750;17.004;2023-07-09T13:01:55;23.60;99.90
34985;DHT22;21190;58.750;17.004;2023-07-09T13:04:35;23.60;99.90
34985;DHT22;21190;58.750;17.004;2023-07-09T13:07:03;23.60;99.90
34985;DHT22;21190;58.750;17.004;2023-07-09T13:09:31;23.50;99.90
34985;DHT22;21190;58.750;17.004;2023-07-09T13:11:58;23.50;99.90
34985;DHT22;21190;58.750;17.004;2023-07-09T13:14:29;23.40;99.90
34985;DHT22;21190;58.750;17.004;2023-07-09T13:17:04;23.30;99.90
34985;DHT22;21190;58.750;17.004;2023-07-09T13:19:33;23.20;99.90
34985;DHT22;21190;58.750;17.004;2023-07-09T13:22:00;23.10;99.90
34985;DHT22;21190;58.750;17.004;2023-07-09T13:24:30;23.10;99.90
34985;DHT22;21190;58.750;17.004;2023-07-09T13:27:00;23.10;99.90
34985;DHT22;21190;58.750;17.004;2023-07-09T13:29:28;23.10;99.90
34985;DHT22;21190;58.750;17.004;2023-07-09T13:31:55;23.10;99.90
34985;DHT22;21190;58.750;17.004;2023-07-09T13:34:33;23.10;99.90
34985;DHT22;21190;58.750;17.004;2023-07-09T13:37:02;23.10;99.90
34985;DHT22;21190;58.750;17.004;2023-07-09T13:39:29;23.00;99.90
34985;DHT22;21190;58.750;17.004;2023-07-09T13:41:55;23.10;99.90
34985;DHT22;21190;58.750;17.004;2023-07-09T13:44:25;23.10;99.90
34985;DHT22;21190;58.750;17.004;2023-07-09T13:46:52;23.10;99.90
34985;DHT22;21190;58.750;17.004;2023-07-09T13:49:22;23.20;99.90
34985;DHT22;21190;58.750;17.004;2023-07-09T13:51:54;23.30;99.90
34985;DHT22;21190;58.750;17.004;2023-07-09T13:54:33;23.40;99.90
34985;DHT22;21190;58.750;17.004;2023-07-09T13:57:06;23.40;99.90
34985;DHT22;21190;58.750;17.004;2023-07-09T13:59:33;23.40;99.90
34985;DHT22;21190;58.750;17.004;2023-07-09T14:02:00;23.40;99.90
34985;DHT22;21190;58.750;17.004;2023-07-09T14:04:32;23.40;99.90
34985;DHT22;21190;58.750;17.004;2023-07-09T14:06:58;23.40;99.90
34985;DHT22;21190;58.750;17.004;2023-07-09T14:09:26;23.40;99.90
34985;DHT22;21190;58.750;17.004;2023-07-09T14:11:53;23.50;99.90
34985;DHT22;21190;58.750;17.004;2023-07-09T14:14:23;23.50;99.90
34985;DHT22;21190;58.750;17.004;2023-07-09T14:16:51;23.50;99.90
34985;DHT22;21190;58.750;17.004;2023-07-09T14:19:21;23.60;99.90
34985;DHT22;21190;58.750;17.004;2023-07-09T14:21:49;23.70;99.90
34985;DHT22;21190;58.750;17.004;2023-07-09T14:26:47;23.80;99.90
34985;DHT22;21190;58.750;17.004;2023-07-09T14:29:14;23.80;99.90
34985;DHT22;21190;58.750;17.004;2023-07-09T14:31:42;23.80;99.90
34985;DHT22;21190;58.750;17.004;2023-07-09T14:34:23;23.80;99.90
34985;DHT22;21190;58.750;17.004;2023-07-09T14:36:52;23.70;99.90
34985;DHT22;21190;58.750;17.004;2023-07-09T14:39:20;23.70;99.90
34985;DHT22;21190;58.750;17.004;2023-07-09T14:41:48;23.80;99.90
34985;DHT22;21190;58.750;17.004;2023-07-09T14:44:18;23.80;99.90
34985;DHT22;21190;58.750;17.004;2023-07-09T14:46:48;23.90;99.90
34985;DHT22;21190;58.750;17.004;2023-07-09T14:49:17;23.90;99.90
34985;DHT22;21190;58.750;17.004;2023-07-09T14:51:44;24.00;99.90
34985;DHT22;21190;58.750;17.004;2023-07-09T14:54:25;24.00;99.90
34985;DHT22;21190;58.750;17.004;2023-07-09T14:56:54;24.00;99.90
34985;DHT22;21190;58.750;17.004;2023-07-09T14:59:21;24.00;99.90
34985;DHT22;21190;58.750;17.004;2023-07-09T15:01:48;23.90;99.90
34985;DHT22;21190;58.750;17.004;2023-07-09T15:04:22;23.80;99.90
34985;DHT22;21190;58.750;17.004;2023-07-09T15:06:54;23.60;99.90
34985;DHT22;21190;58.750;17.004;2023-07-09T15:09:23;23.40;99.90
34985;DHT22;21190;58.750;17.004;2023-07-09T15:12:00;23.20;99.90
34985;DHT22;21190;58.750;17.004;2023-07-09T15:14:27;23.10;99.90
34985;DHT22;21190;58.750;17.004;2023-07-09T15:16:54;23.00;99.90
34985;DHT22;21190;58.750;17.004;2023-07-09T15:19:26;23.00;99.90
34985;DHT22;21190;58.750;17.004;2023-07-09T15:21:54;23.00;99.90
34985;DHT22;21190;58.750;17.004;2023-07-09T15:24:29;22.80;99.90
34985;DHT22;21190;58.750;17.004;2023-07-09T15:26:57;22.60;99.90
34985;DHT22;21190;58.750;17.004;2023-07-09T15:29:30;22.40;99.90
34985;DHT22;21190;58.750;17.004;2023-07-09T15:31:58;22.40;99.90
34985;DHT22;21190;58.750;17.004;2023-07-09T15:34:26;22.30;99.90
34985;DHT22;21190;58.750;17.004;2023-07-09T15:36:53;22.40;99.90
34985;DHT22;21190;58.750;17.004;2023-07-09T15:39:21;22.40;99.90
34985;DHT22;21190;58.750;17.004;2023-07-09T15:41:48;22.50;99.90
34985;DHT22;21190;58.750;17.004;2023-07-09T15:44:17;22.40;99.90
34985;DHT22;21190;58.750;17.004;2023-07-09T15:46:52;22.40;99.90
34985;DHT22;21190;58.750;17.004;2023-07-09T15:49:21;22.50;99.90
34985;DHT22;21190;58.750;17.004;2023-07-09T15:51:48;22.60;99.90
34985;DHT22;21190;58.750;17.004;2023-07-09T15:54:19;22.40;99.90
34985;DHT22;21190;58.750;17.004;2023-07-09T15:56:48;22.40;99.90
34985;DHT22;21190;58.750;17.004;2023-07-09T15:59:35;22.40;99.90
34985;DHT22;21190;58.750;17.004;2023-07-09T16:02:12;22.30;99.90
34985;DHT22;21190;58.750;17.004;2023-07-09T16:04:43;22.30;99.90
34985;DHT22;21190;58.750;17.004;2023-07-09T16:07:11;22.10;99.90
34985;DHT22;21190;58.750;17.004;2023-07-09T16:09:38;21.90;99.90
34985;DHT22;21190;58.750;17.004;2023-07-09T16:12:10;21.80;99.90
34985;DHT22;21190;58.750;17.004;2023-07-09T16:14:39;21.60;99.90
34985;DHT22;21190;58.750;17.004;2023-07-09T16:17:10;21.50;99.90
34985;DHT22;21190;58.750;17.004;2023-07-09T16:19:37;21.50;99.90